sensor_id;sensor_type;location;lat;lon;timestamp;pressure;altitude;pressure_sealevel;temperature;humidity
49341;BME280;35209;51.050;13.678;2023-04-26T00:01:55;99799.09;;;5.86;71.80
49341;BME280;35209;51.050;13.678;2023-04-26T00:06:57;99807.69;;;5.92;71.29
49341;BME280;35209;51.050;13.678;2023-04-26T00:12:01;99813.97;;;5.79;72.21
49341;BME280;35209;51.050;13.678;2023-04-26T00:17:03;99810.38;;;5.86;72.21
49341;BME280;35209;51.050;13.678;2023-04-26T00:22:05;99817.19;;;5.96;71.87
49341;BME280;35209;51.050;13.678;2023-04-26T00:27:07;99820.19;;;5.70;73.18
49341;BME280;35209;51.050;13.678;2023-04-26T00:32:10;99825.38;;;5.72;73.69
49341;BME280;35209;51.050;13.678;2023-04-26T00:37:12;99822.81;;;5.69;73.67
49341;BME280;35209;51.050;13.678;2023-04-26T00:42:14;99828.09;;;5.64;74.21
49341;BME280;35209;51.050;13.678;2023-04-26T00:47:16;99833.34;;;5.63;74.59
49341;BME280;35209;51.050;13.678;2023-04-26T00:52:18;99829.34;;;5.39;75.16
49341;BME280;35209;51.050;13.678;2023-04-26T00:57:20;99839.75;;;5.39;75.54
49341;BME280;35209;51.050;13.678;2023-04-26T01:02:22;99844.47;;;5.14;76.47
49341;BME280;35209;51.050;13.678;2023-04-26T01:07:24;99839.25;;;5.14;76.73
49341;BME280;35209;51.050;13.678;2023-04-26T01:12:27;99842.00;;;5.01;76.88
49341;BME280;35209;51.050;13.678;2023-04-26T01:17:29;99848.13;;;4.97;77.20
49341;BME280;35209;51.050;13.678;2023-04-26T01:22:32;99848.22;;;4.88;77.35
49341;BME280;35209;51.050;13.678;2023-04-26T01:27:34;99842.22;;;4.81;77.60
49341;BME280;35209;51.050;13.678;2023-04-26T01:32:36;99851.81;;;4.79;76.84
49341;BME280;35209;51.050;13.678;2023-04-26T01:37:38;99848.31;;;4.80;76.62
49341;BME280;35209;51.050;13.678;2023-04-26T01:42:40;99850.09;;;4.77;76.08
49341;BME280;35209;51.050;13.678;2023-04-26T01:47:41;99856.22;;;4.74;76.17
49341;BME280;35209;51.050;13.678;2023-04-26T01:52:43;99858.97;;;4.59;76.88
49341;BME280;35209;51.050;13.678;2023-04-26T01:57:45;99858.03;;;4.65;76.78
49341;BME280;35209;51.050;13.678;2023-04-26T02:02:47;99863.09;;;4.78;75.68
49341;BME280;35209;51.050;13.678;2023-04-26T02:07:49;99854.44;;;4.76;75.35
49341;BME280;35209;51.050;13.678;2023-04-26T02:12:51;99866.63;;;4.74;75.88
49341;BME280;35209;51.050;13.678;2023-04-26T02:17:53;99869.28;;;4.70;75.97
49341;BME280;35209;51.050;13.678;2023-04-26T02:22:56;99861.38;;;4.76;75.95
49341;BME280;35209;51.050;13.678;2023-04-26T02:27:57;99867.44;;;4.79;75.94
49341;BME280;35209;51.050;13.678;2023-04-26T02:32:59;99865.78;;;4.71;76.57
49341;BME280;35209;51.050;13.678;2023-04-26T02:38:03;99865.03;;;4.58;78.06
49341;BME280;35209;51.050;13.678;2023-04-26T02:43:05;99864.97;;;4.64;78.07
49341;BME280;35209;51.050;13.678;2023-04-26T02:48:06;99863.88;;;4.85;76.83
49341;BME280;35209;51.050;13.678;2023-04-26T02:53:08;99857.13;;;4.67;78.06
49341;BME280;35209;51.050;13.678;2023-04-26T02:58:10;99864.94;;;4.70;77.68
49341;BME280;35209;51.050;13.678;2023-04-26T03:03:13;99874.63;;;4.51;78.94
49341;BME280;35209;51.050;13.678;2023-04-26T03:08:15;99868.34;;;4.75;77.44
49341;BME280;35209;51.050;13.678;2023-04-26T03:13:17;99875.47;;;4.58;77.99
49341;BME280;35209;51.050;13.678;2023-04-26T03:18:19;99872.78;;;4.64;77.68
49341;BME280;35209;51.050;13.678;2023-04-26T03:23:20;99878.94;;;4.55;78.23
49341;BME280;35209;51.050;13.678;2023-04-26T03:28:26;99881.69;;;4.43;78.95
49341;BME280;35209;51.050;13.678;2023-04-26T03:33:29;99887.78;;;4.39;78.97
49341;BME280;35209;51.050;13.678;2023-04-26T03:38:31;99879.97;;;4.41;78.64
49341;BME280;35209;51.050;13.678;2023-04-26T03:43:32;99878.31;;;4.30;78.03
49341;BME280;35209;51.050;13.678;2023-04-26T03:48:34;99884.53;;;4.11;79.21
49341;BME280;35209;51.050;13.678;2023-04-26T03:53:36;99898.34;;;4.19;78.89
49341;BME280;35209;51.050;13.678;2023-04-26T03:58:39;99899.28;;;4.14;79.24
49341;BME280;35209;51.050;13.678;2023-04-26T04:03:41;99894.09;;;4.11;79.37
49341;BME280;35209;51.050;13.678;2023-04-26T04:08:43;99904.50;;;4.11;78.66
49341;BME280;35209;51.050;13.678;2023-04-26T04:13:45;99908.03;;;4.00;79.19
49341;BME280;35209;51.050;13.678;2023-04-26T04:18:47;99905.50;;;3.94;79.44
49341;BME280;35209;51.050;13.678;2023-04-26T04:23:48;99904.66;;;3.85;80.02
49341;BME280;35209;51.050;13.678;2023-04-26T04:28:51;99909.00;;;3.84;80.22
49341;BME280;35209;51.050;13.678;2023-04-26T04:33:54;99908.97;;;3.92;79.62
49341;BME280;35209;51.050;13.678;2023-04-26T04:38:56;99914.16;;;3.95;78.75
49341;BME280;35209;51.050;13.678;2023-04-26T04:43:59;99916.63;;;4.10;77.55
49341;BME280;35209;51.050;13.678;2023-04-26T04:49:02;99918.47;;;3.97;77.91
49341;BME280;35209;51.050;13.678;2023-04-26T04:54:15;99928.78;;;4.13;77.42
49341;BME280;35209;51.050;13.678;2023-04-26T04:59:20;99928.78;;;4.07;77.77
49341;BME280;35209;51.050;13.678;2023-04-26T05:04:22;99937.47;;;4.09;77.47
49341;BME280;35209;51.050;13.678;2023-04-26T05:09:24;99937.38;;;4.21;76.89
49341;BME280;35209;51.050;13.678;2023-04-26T05:14:28;99943.44;;;4.23;77.34
49341;BME280;35209;51.050;13.678;2023-04-26T05:19:30;99943.16;;;4.55;75.31
49341;BME280;35209;51.050;13.678;2023-04-26T05:24:32;99946.59;;;4.62;75.93
49341;BME280;35209;51.050;13.678;2023-04-26T05:29:34;99944.63;;;4.82;74.74
49341;BME280;35209;51.050;13.678;2023-04-26T05:34:41;99952.50;;;4.79;75.71
49341;BME280;35209;51.050;13.678;2023-04-26T05:39:48;99956.44;;;5.18;73.69
49341;BME280;35209;51.050;13.678;2023-04-26T05:44:56;99963.28;;;5.25;73.10
49341;BME280;35209;51.050;13.678;2023-04-26T05:49:58;99971.25;;;5.15;73.87
49341;BME280;35209;51.050;13.678;2023-04-26T05:55:00;99976.84;;;5.56;73.52
49341;BME280;35209;51.050;13.678;2023-04-26T06:00:05;99982.56;;;5.83;71.28
49341;BME280;35209;51.050;13.678;2023-04-26T06:05:14;99986.91;;;5.84;70.58
49341;BME280;35209;51.050;13.678;2023-04-26T06:10:17;99982.34;;;6.01;70.42
49341;BME280;35209;51.050;13.678;2023-04-26T06:15:18;99988.81;;;6.38;68.39
49341;BME280;35209;51.050;13.678;2023-04-26T06:20:20;99985.41;;;6.31;67.91
49341;BME280;35209;51.050;13.678;2023-04-26T06:25:22;99995.06;;;6.80;65.10
49341;BME280;35209;51.050;13.678;2023-04-26T06:30:24;99988.28;;;6.70;65.72
49341;BME280;35209;51.050;13.678;2023-04-26T06:35:27;99991.78;;;6.69;65.16
49341;BME280;35209;51.050;13.678;2023-04-26T06:40:29;99993.38;;;7.27;62.74
49341;BME280;35209;51.050;13.678;2023-04-26T06:45:30;99991.19;;;7.02;62.87
49341;BME280;35209;51.050;13.678;2023-04-26T06:50:37;99996.41;;;7.02;61.02
49341;BME280;35209;51.050;13.678;2023-04-26T06:55:40;99995.72;;;7.39;61.70
49341;BME280;35209;51.050;13.678;2023-04-26T07:00:42;100004.56;;;7.33;60.56
49341;BME280;35209;51.050;13.678;2023-04-26T07:05:43;100015.31;;;7.17;61.34
49341;BME280;35209;51.050;13.678;2023-04-26T07:10:45;100010.34;;;7.04;60.51
49341;BME280;35209;51.050;13.678;2023-04-26T07:15:47;100002.69;;;7.83;58.98
49341;BME280;35209;51.050;13.678;2023-04-26T07:20:49;100011.19;;;7.51;56.56
49341;BME280;35209;51.050;13.678;2023-04-26T07:25:55;100017.78;;;6.75;58.59
49341;BME280;35209;51.050;13.678;2023-04-26T07:30:59;100016.22;;;6.63;59.71
49341;BME280;35209;51.050;13.678;2023-04-26T07:36:01;100014.75;;;7.01;59.32
49341;BME280;35209;51.050;13.678;2023-04-26T07:41:03;100009.38;;;7.55;53.94
49341;BME280;35209;51.050;13.678;2023-04-26T07:46:05;100010.81;;;7.70;54.81
49341;BME280;35209;51.050;13.678;2023-04-26T07:51:09;100015.28;;;8.06;53.64
49341;BME280;35209;51.050;13.678;2023-04-26T07:56:11;100008.72;;;7.44;53.79
49341;BME280;35209;51.050;13.678;2023-04-26T08:01:13;100007.66;;;7.52;52.24
49341;BME280;35209;51.050;13.678;2023-04-26T08:06:17;100013.16;;;7.39;54.19
49341;BME280;35209;51.050;13.678;2023-04-26T08:11:19;100004.28;;;7.47;53.59
49341;BME280;35209;51.050;13.678;2023-04-26T08:16:21;100013.06;;;7.45;55.01
49341;BME280;35209;51.050;13.678;2023-04-26T08:21:22;100005.56;;;7.70;51.81
49341;BME280;35209;51.050;13.678;2023-04-26T08:26:24;100021.31;;;8.50;50.57
49341;BME280;35209;51.050;13.678;2023-04-26T08:31:26;100018.28;;;8.28;47.20
49341;BME280;35209;51.050;13.678;2023-04-26T08:36:28;100025.06;;;7.98;50.76
49341;BME280;35209;51.050;13.678;2023-04-26T08:41:37;100014.72;;;8.70;49.55
49341;BME280;35209;51.050;13.678;2023-04-26T08:51:55;100011.19;;;8.72;48.07
49341;BME280;35209;51.050;13.678;2023-04-26T08:56:58;100016.06;;;8.86;46.51
49341;BME280;35209;51.050;13.678;2023-04-26T09:02:01;100012.38;;;8.59;47.34
49341;BME280;35209;51.050;13.678;2023-04-26T09:07:06;100010.84;;;8.50;46.21
49341;BME280;35209;51.050;13.678;2023-04-26T09:12:08;100014.47;;;8.03;46.09
49341;BME280;35209;51.050;13.678;2023-04-26T09:32:48;100021.41;;;9.16;47.83
49341;BME280;35209;51.050;13.678;2023-04-26T09:37:51;100026.44;;;8.91;46.14
49341;BME280;35209;51.050;13.678;2023-04-26T09:43:09;100027.56;;;8.43;48.10
49341;BME280;35209;51.050;13.678;2023-04-26T09:53:24;100018.38;;;9.64;46.38
49341;BME280;35209;51.050;13.678;2023-04-26T09:58:29;100016.41;;;10.31;41.51
49341;BME280;35209;51.050;13.678;2023-04-26T10:03:33;100021.38;;;10.40;41.93
49341;BME280;35209;51.050;13.678;2023-04-26T10:08:36;100024.44;;;9.33;41.47
49341;BME280;35209;51.050;13.678;2023-04-26T10:13:39;100033.53;;;8.87;44.05
49341;BME280;35209;51.050;13.678;2023-04-26T10:18:42;100031.91;;;8.44;45.30
49341;BME280;35209;51.050;13.678;2023-04-26T10:23:44;100036.88;;;8.16;47.49
49341;BME280;35209;51.050;13.678;2023-04-26T10:34:16;100021.75;;;9.03;44.67
49341;BME280;35209;51.050;13.678;2023-04-26T10:39:19;100023.03;;;8.87;44.05
49341;BME280;35209;51.050;13.678;2023-04-26T10:49:44;100023.53;;;9.34;43.32
49341;BME280;35209;51.050;13.678;2023-04-26T11:05:35;100014.63;;;9.08;44.12
49341;BME280;35209;51.050;13.678;2023-04-26T11:10:38;100016.72;;;9.28;42.34
49341;BME280;35209;51.050;13.678;2023-04-26T11:15:39;100025.13;;;9.41;41.72
49341;BME280;35209;51.050;13.678;2023-04-26T11:20:41;100016.53;;;9.67;42.54
49341;BME280;35209;51.050;13.678;2023-04-26T11:25:45;100018.75;;;10.10;42.60
49341;BME280;35209;51.050;13.678;2023-04-26T11:30:48;100011.69;;;10.42;38.71
49341;BME280;35209;51.050;13.678;2023-04-26T11:35:54;100025.91;;;9.76;40.66
49341;BME280;35209;51.050;13.678;2023-04-26T11:40:57;100027.19;;;9.28;40.22
49341;BME280;35209;51.050;13.678;2023-04-26T11:45:59;100027.47;;;8.83;42.20
49341;BME280;35209;51.050;13.678;2023-04-26T11:51:05;100035.34;;;8.83;45.31
49341;BME280;35209;51.050;13.678;2023-04-26T11:56:18;100036.81;;;8.58;46.51
49341;BME280;35209;51.050;13.678;2023-04-26T12:01:27;100040.06;;;8.69;47.01
49341;BME280;35209;51.050;13.678;2023-04-26T12:06:30;100043.09;;;8.88;46.17
49341;BME280;35209;51.050;13.678;2023-04-26T12:11:33;100033.03;;;9.40;45.01
49341;BME280;35209;51.050;13.678;2023-04-26T12:16:35;100052.75;;;9.54;44.20
49341;BME280;35209;51.050;13.678;2023-04-26T12:21:41;100041.34;;;9.55;45.93
49341;BME280;35209;51.050;13.678;2023-04-26T12:26:43;100043.97;;;9.23;44.25
49341;BME280;35209;51.050;13.678;2023-04-26T12:31:45;100041.22;;;9.27;46.22
49341;BME280;35209;51.050;13.678;2023-04-26T12:36:47;100037.13;;;9.81;44.69
49341;BME280;35209;51.050;13.678;2023-04-26T12:41:49;100035.63;;;9.72;44.20
49341;BME280;35209;51.050;13.678;2023-04-26T12:46:51;100028.44;;;10.08;43.82
49341;BME280;35209;51.050;13.678;2023-04-26T12:51:53;100040.56;;;10.14;44.84
49341;BME280;35209;51.050;13.678;2023-04-26T12:56:55;100030.38;;;9.72;43.54
49341;BME280;35209;51.050;13.678;2023-04-26T13:01:56;100043.16;;;9.53;43.36
49341;BME280;35209;51.050;13.678;2023-04-26T13:06:58;100038.63;;;9.58;41.97
49341;BME280;35209;51.050;13.678;2023-04-26T13:12:00;100030.25;;;9.77;41.98
49341;BME280;35209;51.050;13.678;2023-04-26T13:17:02;100036.69;;;9.96;41.69
49341;BME280;35209;51.050;13.678;2023-04-26T13:22:05;100018.69;;;9.82;42.78
49341;BME280;35209;51.050;13.678;2023-04-26T13:27:08;100027.69;;;10.34;40.60
49341;BME280;35209;51.050;13.678;2023-04-26T13:32:10;100037.78;;;10.19;42.10
49341;BME280;35209;51.050;13.678;2023-04-26T13:37:12;100026.63;;;9.81;42.93
49341;BME280;35209;51.050;13.678;2023-04-26T13:42:14;100029.97;;;9.86;42.48
49341;BME280;35209;51.050;13.678;2023-04-26T13:47:17;100041.59;;;9.77;42.68
49341;BME280;35209;51.050;13.678;2023-04-26T13:52:18;100037.06;;;9.82;42.09
49341;BME280;35209;51.050;13.678;2023-04-26T13:57:20;100040.31;;;9.92;42.67
49341;BME280;35209;51.050;13.678;2023-04-26T14:02:22;100037.44;;;10.00;41.70
49341;BME280;35209;51.050;13.678;2023-04-26T14:07:25;100031.97;;;10.07;42.71
49341;BME280;35209;51.050;13.678;2023-04-26T14:12:28;100040.25;;;10.53;41.35
49341;BME280;35209;51.050;13.678;2023-04-26T14:17:30;100042.19;;;10.18;41.12
49341;BME280;35209;51.050;13.678;2023-04-26T14:22:33;100039.81;;;10.09;40.70
49341;BME280;35209;51.050;13.678;2023-04-26T14:27:34;100042.88;;;9.94;42.46
49341;BME280;35209;51.050;13.678;2023-04-26T14:32:36;100051.09;;;9.81;42.82
49341;BME280;35209;51.050;13.678;2023-04-26T14:37:38;100052.06;;;9.79;42.54
49341;BME280;35209;51.050;13.678;2023-04-26T14:42:40;100045.03;;;9.48;42.37
49341;BME280;35209;51.050;13.678;2023-04-26T14:47:46;100049.00;;;9.63;43.48
49341;BME280;35209;51.050;13.678;2023-04-26T14:52:48;100050.59;;;9.69;43.03
49341;BME280;35209;51.050;13.678;2023-04-26T14:57:50;100060.22;;;9.68;42.47
49341;BME280;35209;51.050;13.678;2023-04-26T15:02:52;100054.56;;;9.51;43.38
49341;BME280;35209;51.050;13.678;2023-04-26T15:07:54;100053.56;;;9.56;42.70
49341;BME280;35209;51.050;13.678;2023-04-26T15:12:57;100042.44;;;9.78;43.47
49341;BME280;35209;51.050;13.678;2023-04-26T15:17:59;100049.72;;;9.70;43.51
49341;BME280;35209;51.050;13.678;2023-04-26T15:23:01;100051.28;;;9.75;42.70
49341;BME280;35209;51.050;13.678;2023-04-26T15:28:03;100056.47;;;9.46;44.37
49341;BME280;35209;51.050;13.678;2023-04-26T15:33:05;100054.69;;;9.46;43.80
49341;BME280;35209;51.050;13.678;2023-04-26T15:38:08;100047.06;;;9.39;43.23
49341;BME280;35209;51.050;13.678;2023-04-26T15:43:09;100058.06;;;9.19;44.15
49341;BME280;35209;51.050;13.678;2023-04-26T15:48:12;100050.06;;;9.23;44.29
49341;BME280;35209;51.050;13.678;2023-04-26T15:53:13;100057.75;;;9.31;43.58
49341;BME280;35209;51.050;13.678;2023-04-26T15:58:15;100063.25;;;9.20;43.71
49341;BME280;35209;51.050;13.678;2023-04-26T16:03:17;100061.81;;;9.08;44.25
49341;BME280;35209;51.050;13.678;2023-04-26T16:08:19;100053.63;;;8.87;45.58
49341;BME280;35209;51.050;13.678;2023-04-26T16:13:40;100054.22;;;8.98;45.71
49341;BME280;35209;51.050;13.678;2023-04-26T16:18:42;100054.44;;;8.89;44.53
49341;BME280;35209;51.050;13.678;2023-04-26T16:23:45;100059.84;;;8.82;44.39
49341;BME280;35209;51.050;13.678;2023-04-26T16:28:48;100056.47;;;8.77;45.63
49341;BME280;35209;51.050;13.678;2023-04-26T16:33:49;100056.47;;;8.77;45.21
49341;BME280;35209;51.050;13.678;2023-04-26T16:38:52;100062.00;;;8.65;44.86
49341;BME280;35209;51.050;13.678;2023-04-26T16:43:54;100058.69;;;8.57;45.50
49341;BME280;35209;51.050;13.678;2023-04-26T16:48:56;100063.59;;;8.72;45.79
49341;BME280;35209;51.050;13.678;2023-04-26T16:53:58;100060.63;;;8.86;45.48
49341;BME280;35209;51.050;13.678;2023-04-26T16:58:59;100063.22;;;8.88;45.32
49341;BME280;35209;51.050;13.678;2023-04-26T17:04:02;100069.97;;;8.61;46.22
49341;BME280;35209;51.050;13.678;2023-04-26T17:09:04;100074.19;;;8.68;46.69
49341;BME280;35209;51.050;13.678;2023-04-26T17:14:06;100073.41;;;8.63;47.21
49341;BME280;35209;51.050;13.678;2023-04-26T17:19:07;100070.88;;;8.59;47.17
49341;BME280;35209;51.050;13.678;2023-04-26T17:24:09;100077.66;;;8.68;47.13
49341;BME280;35209;51.050;13.678;2023-04-26T17:29:11;100087.16;;;8.32;47.39
49341;BME280;35209;51.050;13.678;2023-04-26T17:34:13;100087.63;;;8.52;47.76
49341;BME280;35209;51.050;13.678;2023-04-26T17:39:14;100090.09;;;8.58;47.85
49341;BME280;35209;51.050;13.678;2023-04-26T17:44:17;100089.22;;;8.58;47.95
49341;BME280;35209;51.050;13.678;2023-04-26T17:49:19;100094.13;;;8.33;49.12
49341;BME280;35209;51.050;13.678;2023-04-26T17:54:22;100099.53;;;8.25;48.93
49341;BME280;35209;51.050;13.678;2023-04-26T17:59:24;100097.09;;;8.16;49.24
49341;BME280;35209;51.050;13.678;2023-04-26T18:04:26;100093.69;;;8.13;49.61
49341;BME280;35209;51.050;13.678;2023-04-26T18:09:29;100103.31;;;8.12;49.85
49341;BME280;35209;51.050;13.678;2023-04-26T18:14:30;100106.19;;;7.98;51.08
49341;BME280;35209;51.050;13.678;2023-04-26T18:19:32;100109.81;;;7.91;51.12
49341;BME280;35209;51.050;13.678;2023-04-26T18:24:34;100107.34;;;7.85;52.07
49341;BME280;35209;51.050;13.678;2023-04-26T18:29:36;100110.75;;;8.30;50.55
49341;BME280;35209;51.050;13.678;2023-04-26T18:34:38;100122.28;;;8.22;50.66
49341;BME280;35209;51.050;13.678;2023-04-26T18:39:40;100118.97;;;8.14;50.82
49341;BME280;35209;51.050;13.678;2023-04-26T18:44:42;100122.72;;;8.02;52.00
49341;BME280;35209;51.050;13.678;2023-04-26T18:49:43;100131.44;;;8.02;52.02
49341;BME280;35209;51.050;13.678;2023-04-26T18:54:45;100125.47;;;7.94;52.69
49341;BME280;35209;51.050;13.678;2023-04-26T18:59:48;100120.88;;;8.07;52.55
49341;BME280;35209;51.050;13.678;2023-04-26T19:04:49;100136.00;;;7.91;53.09
49341;BME280;35209;51.050;13.678;2023-04-26T19:09:51;100136.47;;;7.67;54.21
49341;BME280;35209;51.050;13.678;2023-04-26T19:14:59;100146.25;;;7.55;54.83
49341;BME280;35209;51.050;13.678;2023-04-26T19:20:01;100142.03;;;7.47;55.26
49341;BME280;35209;51.050;13.678;2023-04-26T19:25:07;100144.50;;;7.56;55.92
49341;BME280;35209;51.050;13.678;2023-04-26T19:30:10;100147.47;;;7.36;56.14
49341;BME280;35209;51.050;13.678;2023-04-26T19:35:12;100146.41;;;7.46;56.78
49341;BME280;35209;51.050;13.678;2023-04-26T19:40:14;100150.72;;;7.50;55.30
49341;BME280;35209;51.050;13.678;2023-04-26T19:45:16;100151.88;;;7.32;56.76
49341;BME280;35209;51.050;13.678;2023-04-26T19:50:20;100161.53;;;7.29;56.09
49341;BME280;35209;51.050;13.678;2023-04-26T19:55:22;100161.38;;;7.40;55.38
49341;BME280;35209;51.050;13.678;2023-04-26T20:00:24;100154.19;;;7.51;55.22
49341;BME280;35209;51.050;13.678;2023-04-26T20:05:26;100157.16;;;7.29;56.22
49341;BME280;35209;51.050;13.678;2023-04-26T20:10:30;100160.66;;;7.28;55.79
49341;BME280;35209;51.050;13.678;2023-04-26T20:15:32;100163.44;;;7.19;56.46
49341;BME280;35209;51.050;13.678;2023-04-26T20:20:34;100158.88;;;7.32;55.09
49341;BME280;35209;51.050;13.678;2023-04-26T20:25:36;100161.56;;;7.26;55.14
49341;BME280;35209;51.050;13.678;2023-04-26T20:30:38;100157.75;;;6.93;56.28
49341;BME280;35209;51.050;13.678;2023-04-26T20:35:39;100160.34;;;6.93;56.21
49341;BME280;35209;51.050;13.678;2023-04-26T20:40:41;100151.06;;;6.73;56.55
49341;BME280;35209;51.050;13.678;2023-04-26T20:45:43;100147.94;;;6.47;58.26
49341;BME280;35209;51.050;13.678;2023-04-26T20:50:45;100146.31;;;6.38;58.20
49341;BME280;35209;51.050;13.678;2023-04-26T20:55:47;100142.84;;;6.38;58.11
49341;BME280;35209;51.050;13.678;2023-04-26T21:00:48;100139.03;;;5.88;60.82
49341;BME280;35209;51.050;13.678;2023-04-26T21:05:55;100145.31;;;5.70;61.90
49341;BME280;35209;51.050;13.678;2023-04-26T21:10:57;100151.59;;;5.50;63.40
49341;BME280;35209;51.050;13.678;2023-04-26T21:15:59;100154.13;;;5.60;63.19
49341;BME280;35209;51.050;13.678;2023-04-26T21:21:01;100155.94;;;5.51;64.64
49341;BME280;35209;51.050;13.678;2023-04-26T21:26:02;100159.34;;;5.58;62.69
49341;BME280;35209;51.050;13.678;2023-04-26T21:31:05;100164.59;;;5.55;62.51
49341;BME280;35209;51.050;13.678;2023-04-26T21:36:08;100163.66;;;5.64;62.11
49341;BME280;35209;51.050;13.678;2023-04-26T21:41:09;100169.94;;;5.41;62.65
49341;BME280;35209;51.050;13.678;2023-04-26T21:46:11;100173.31;;;5.51;62.19
49341;BME280;35209;51.050;13.678;2023-04-26T21:51:13;100176.72;;;5.57;61.61
49341;BME280;35209;51.050;13.678;2023-04-26T21:56:15;100183.78;;;5.46;62.02
49341;BME280;35209;51.050;13.678;2023-04-26T22:01:19;100184.78;;;5.31;62.46
49341;BME280;35209;51.050;13.678;2023-04-26T22:06:21;100184.84;;;5.21;62.59
49341;BME280;35209;51.050;13.678;2023-04-26T22:11:23;100192.00;;;4.94;64.63
49341;BME280;35209;51.050;13.678;2023-04-26T22:16:25;100192.16;;;4.67;65.21
49341;BME280;35209;51.050;13.678;2023-04-26T22:21:26;100195.69;;;4.50;66.06
49341;BME280;35209;51.050;13.678;2023-04-26T22:26:28;100200.94;;;4.38;66.60
49341;BME280;35209;51.050;13.678;2023-04-26T22:31:30;100194.91;;;4.28;68.34
49341;BME280;35209;51.050;13.678;2023-04-26T22:36:32;100212.28;;;4.28;69.33
49341;BME280;35209;51.050;13.678;2023-04-26T22:41:34;100206.25;;;4.18;70.49
49341;BME280;35209;51.050;13.678;2023-04-26T22:46:35;100209.75;;;4.05;71.64
49341;BME280;35209;51.050;13.678;2023-04-26T22:51:37;100218.41;;;3.98;72.42
49341;BME280;35209;51.050;13.678;2023-04-26T22:56:39;100226.25;;;3.95;72.77
49341;BME280;35209;51.050;13.678;2023-04-26T23:01:40;100228.84;;;3.84;73.66
49341;BME280;35209;51.050;13.678;2023-04-26T23:06:42;100229.75;;;3.72;74.74
49341;BME280;35209;51.050;13.678;2023-04-26T23:11:44;100229.75;;;3.68;75.15
49341;BME280;35209;51.050;13.678;2023-04-26T23:16:46;100226.25;;;3.63;75.83
49341;BME280;35209;51.050;13.678;2023-04-26T23:21:48;100232.34;;;3.62;75.41
49341;BME280;35209;51.050;13.678;2023-04-26T23:26:50;100227.97;;;3.76;74.07
49341;BME280;35209;51.050;13.678;2023-04-26T23:31:51;100228.00;;;3.67;75.19
49341;BME280;35209;51.050;13.678;2023-04-26T23:36:53;100231.50;;;3.46;76.21
49341;BME280;35209;51.050;13.678;2023-04-26T23:41:55;100229.75;;;3.34;77.29
49341;BME280;35209;51.050;13.678;2023-04-26T23:46:58;100227.16;;;3.28;77.25
49341;BME280;35209;51.050;13.678;2023-04-26T23:51:59;100217.59;;;3.30;76.84
49341;BME280;35209;51.050;13.678;2023-04-26T23:57:01;100223.66;;;3.44;76.24
